sensor_id;sensor_type;location;lat;lon;timestamp;temperature;humidity
14733;DHT22;7457;50.960;6.830;2022-12-29T00:02:04;10.60;90.70
14733;DHT22;7457;50.960;6.830;2022-12-29T00:04:30;10.60;91.10
14733;DHT22;7457;50.960;6.830;2022-12-29T00:06:56;10.60;91.20
14733;DHT22;7457;50.960;6.830;2022-12-29T00:09:22;10.60;91.30
14733;DHT22;7457;50.960;6.830;2022-12-29T00:11:48;10.70;91.30
14733;DHT22;7457;50.960;6.830;2022-12-29T00:14:15;10.70;91.10
14733;DHT22;7457;50.960;6.830;2022-12-29T00:17:00;10.80;91.00
14733;DHT22;7457;50.960;6.830;2022-12-29T00:19:26;10.80;90.80
14733;DHT22;7457;50.960;6.830;2022-12-29T00:22:12;10.90;90.50
14733;DHT22;7457;50.960;6.830;2022-12-29T00:24:57;11.00;90.00
14733;DHT22;7457;50.960;6.830;2022-12-29T00:27:41;11.10;89.60
14733;DHT22;7457;50.960;6.830;2022-12-29T00:30:25;11.10;89.20
14733;DHT22;7457;50.960;6.830;2022-12-29T00:33:20;11.20;88.70
14733;DHT22;7457;50.960;6.830;2022-12-29T00:36:11;11.20;88.30
14733;DHT22;7457;50.960;6.830;2022-12-29T00:38:40;11.30;88.10
14733;DHT22;7457;50.960;6.830;2022-12-29T00:41:25;11.30;87.80
14733;DHT22;7457;50.960;6.830;2022-12-29T00:44:12;11.40;87.30
14733;DHT22;7457;50.960;6.830;2022-12-29T00:46:42;11.40;86.90
14733;DHT22;7457;50.960;6.830;2022-12-29T00:49:09;11.50;86.70
14733;DHT22;7457;50.960;6.830;2022-12-29T00:51:54;11.50;86.70
14733;DHT22;7457;50.960;6.830;2022-12-29T00:54:20;11.50;86.60
14733;DHT22;7457;50.960;6.830;2022-12-29T00:56:50;11.50;86.50
14733;DHT22;7457;50.960;6.830;2022-12-29T00:59:16;11.50;86.50
14733;DHT22;7457;50.960;6.830;2022-12-29T01:01:43;11.50;86.20
14733;DHT22;7457;50.960;6.830;2022-12-29T01:04:09;11.60;86.20
14733;DHT22;7457;50.960;6.830;2022-12-29T01:06:36;11.60;86.10
14733;DHT22;7457;50.960;6.830;2022-12-29T01:09:03;11.60;86.30
14733;DHT22;7457;50.960;6.830;2022-12-29T01:11:47;11.50;86.60
14733;DHT22;7457;50.960;6.830;2022-12-29T01:14:13;11.40;86.80
14733;DHT22;7457;50.960;6.830;2022-12-29T01:16:39;11.40;87.10
14733;DHT22;7457;50.960;6.830;2022-12-29T01:19:05;11.30;87.40
14733;DHT22;7457;50.960;6.830;2022-12-29T01:21:30;11.30;87.50
14733;DHT22;7457;50.960;6.830;2022-12-29T01:23:56;11.30;87.50
14733;DHT22;7457;50.960;6.830;2022-12-29T01:26:22;11.30;87.50
14733;DHT22;7457;50.960;6.830;2022-12-29T01:28:47;11.40;87.50
14733;DHT22;7457;50.960;6.830;2022-12-29T01:31:14;11.40;87.50
14733;DHT22;7457;50.960;6.830;2022-12-29T01:33:40;11.40;87.40
14733;DHT22;7457;50.960;6.830;2022-12-29T01:36:09;11.40;86.90
14733;DHT22;7457;50.960;6.830;2022-12-29T01:38:36;11.40;86.50
14733;DHT22;7457;50.960;6.830;2022-12-29T01:41:02;11.50;86.40
14733;DHT22;7457;50.960;6.830;2022-12-29T01:43:50;11.50;85.60
14733;DHT22;7457;50.960;6.830;2022-12-29T01:48:54;11.60;85.00
14733;DHT22;7457;50.960;6.830;2022-12-29T01:51:23;11.60;85.00
14733;DHT22;7457;50.960;6.830;2022-12-29T01:53:51;11.60;84.80
14733;DHT22;7457;50.960;6.830;2022-12-29T01:56:19;11.50;84.50
14733;DHT22;7457;50.960;6.830;2022-12-29T01:58:48;11.50;84.40
14733;DHT22;7457;50.960;6.830;2022-12-29T02:01:15;11.50;84.10
14733;DHT22;7457;50.960;6.830;2022-12-29T02:03:42;11.50;83.70
14733;DHT22;7457;50.960;6.830;2022-12-29T02:06:12;11.50;83.20
14733;DHT22;7457;50.960;6.830;2022-12-29T02:08:40;11.50;83.20
14733;DHT22;7457;50.960;6.830;2022-12-29T02:11:07;11.50;83.00
14733;DHT22;7457;50.960;6.830;2022-12-29T02:13:33;11.40;82.60
14733;DHT22;7457;50.960;6.830;2022-12-29T02:18:59;11.40;82.30
14733;DHT22;7457;50.960;6.830;2022-12-29T02:27:26;11.60;80.80
14733;DHT22;7457;50.960;6.830;2022-12-29T02:46:39;11.70;79.80
14733;DHT22;7457;50.960;6.830;2022-12-29T02:49:18;11.70;79.20
14733;DHT22;7457;50.960;6.830;2022-12-29T02:51:52;11.80;79.00
14733;DHT22;7457;50.960;6.830;2022-12-29T02:54:19;11.80;79.20
14733;DHT22;7457;50.960;6.830;2022-12-29T02:57:05;11.80;78.90
14733;DHT22;7457;50.960;6.830;2022-12-29T02:59:33;11.90;79.10
14733;DHT22;7457;50.960;6.830;2022-12-29T03:13:39;11.80;79.10
14733;DHT22;7457;50.960;6.830;2022-12-29T03:16:44;11.80;79.50
14733;DHT22;7457;50.960;6.830;2022-12-29T03:19:23;11.70;80.00
14733;DHT22;7457;50.960;6.830;2022-12-29T03:21:59;11.60;80.40
14733;DHT22;7457;50.960;6.830;2022-12-29T03:24:56;11.60;80.90
14733;DHT22;7457;50.960;6.830;2022-12-29T03:27:46;11.60;81.20
14733;DHT22;7457;50.960;6.830;2022-12-29T03:30:13;11.60;81.50
14733;DHT22;7457;50.960;6.830;2022-12-29T03:32:49;11.50;81.70
14733;DHT22;7457;50.960;6.830;2022-12-29T03:35:18;11.50;82.10
14733;DHT22;7457;50.960;6.830;2022-12-29T03:37:51;11.50;82.30
14733;DHT22;7457;50.960;6.830;2022-12-29T03:40:21;11.50;82.40
14733;DHT22;7457;50.960;6.830;2022-12-29T03:42:48;11.50;82.50
14733;DHT22;7457;50.960;6.830;2022-12-29T03:45:13;11.50;82.60
14733;DHT22;7457;50.960;6.830;2022-12-29T03:47:39;11.50;82.70
14733;DHT22;7457;50.960;6.830;2022-12-29T03:50:05;11.60;82.80
14733;DHT22;7457;50.960;6.830;2022-12-29T03:52:31;11.60;82.80
14733;DHT22;7457;50.960;6.830;2022-12-29T03:54:57;11.50;82.80
14733;DHT22;7457;50.960;6.830;2022-12-29T03:57:22;11.50;82.80
14733;DHT22;7457;50.960;6.830;2022-12-29T03:59:48;11.50;82.80
14733;DHT22;7457;50.960;6.830;2022-12-29T04:02:14;11.50;82.90
14733;DHT22;7457;50.960;6.830;2022-12-29T04:04:40;11.40;82.90
14733;DHT22;7457;50.960;6.830;2022-12-29T04:07:05;11.40;83.10
14733;DHT22;7457;50.960;6.830;2022-12-29T04:09:31;11.40;83.20
14733;DHT22;7457;50.960;6.830;2022-12-29T04:11:56;11.40;83.10
14733;DHT22;7457;50.960;6.830;2022-12-29T04:14:22;11.40;83.00
14733;DHT22;7457;50.960;6.830;2022-12-29T04:16:48;11.40;82.80
14733;DHT22;7457;50.960;6.830;2022-12-29T04:19:13;11.40;82.70
14733;DHT22;7457;50.960;6.830;2022-12-29T04:21:39;11.40;82.60
14733;DHT22;7457;50.960;6.830;2022-12-29T04:24:05;11.40;82.50
14733;DHT22;7457;50.960;6.830;2022-12-29T04:26:32;11.40;82.60
14733;DHT22;7457;50.960;6.830;2022-12-29T04:28:58;11.30;82.70
14733;DHT22;7457;50.960;6.830;2022-12-29T04:31:23;11.30;82.80
14733;DHT22;7457;50.960;6.830;2022-12-29T04:33:49;11.20;82.90
14733;DHT22;7457;50.960;6.830;2022-12-29T04:36:15;11.20;83.00
14733;DHT22;7457;50.960;6.830;2022-12-29T04:38:40;11.20;83.00
14733;DHT22;7457;50.960;6.830;2022-12-29T04:41:06;11.20;83.10
14733;DHT22;7457;50.960;6.830;2022-12-29T04:43:31;11.30;83.20
14733;DHT22;7457;50.960;6.830;2022-12-29T04:45:57;11.30;83.20
14733;DHT22;7457;50.960;6.830;2022-12-29T04:48:23;11.30;83.20
14733;DHT22;7457;50.960;6.830;2022-12-29T04:50:49;11.30;83.10
14733;DHT22;7457;50.960;6.830;2022-12-29T04:53:15;11.30;83.00
14733;DHT22;7457;50.960;6.830;2022-12-29T04:55:41;11.40;83.00
14733;DHT22;7457;50.960;6.830;2022-12-29T04:58:06;11.30;82.90
14733;DHT22;7457;50.960;6.830;2022-12-29T05:00:32;11.30;82.70
14733;DHT22;7457;50.960;6.830;2022-12-29T05:02:58;11.30;82.60
14733;DHT22;7457;50.960;6.830;2022-12-29T05:05:23;11.30;82.50
14733;DHT22;7457;50.960;6.830;2022-12-29T05:07:49;11.30;82.40
14733;DHT22;7457;50.960;6.830;2022-12-29T05:10:14;11.30;82.30
14733;DHT22;7457;50.960;6.830;2022-12-29T05:12:40;11.20;82.10
14733;DHT22;7457;50.960;6.830;2022-12-29T05:15:10;11.20;81.80
14733;DHT22;7457;50.960;6.830;2022-12-29T05:17:36;11.20;81.80
14733;DHT22;7457;50.960;6.830;2022-12-29T05:20:02;11.20;81.50
14733;DHT22;7457;50.960;6.830;2022-12-29T05:22:27;11.20;81.30
14733;DHT22;7457;50.960;6.830;2022-12-29T05:24:53;11.20;80.90
14733;DHT22;7457;50.960;6.830;2022-12-29T05:27:18;11.30;80.40
14733;DHT22;7457;50.960;6.830;2022-12-29T05:29:44;11.40;79.60
14733;DHT22;7457;50.960;6.830;2022-12-29T05:32:09;11.50;79.00
14733;DHT22;7457;50.960;6.830;2022-12-29T05:34:35;11.50;78.70
14733;DHT22;7457;50.960;6.830;2022-12-29T05:37:01;11.60;78.20
14733;DHT22;7457;50.960;6.830;2022-12-29T05:39:28;11.60;78.30
14733;DHT22;7457;50.960;6.830;2022-12-29T05:41:53;11.60;78.10
14733;DHT22;7457;50.960;6.830;2022-12-29T05:44:19;11.50;78.20
14733;DHT22;7457;50.960;6.830;2022-12-29T05:46:45;11.60;78.30
14733;DHT22;7457;50.960;6.830;2022-12-29T05:49:10;11.50;78.30
14733;DHT22;7457;50.960;6.830;2022-12-29T05:51:36;11.50;78.20
14733;DHT22;7457;50.960;6.830;2022-12-29T05:54:01;11.50;78.00
14733;DHT22;7457;50.960;6.830;2022-12-29T05:56:27;11.60;77.90
14733;DHT22;7457;50.960;6.830;2022-12-29T05:58:52;11.60;77.80
14733;DHT22;7457;50.960;6.830;2022-12-29T06:01:18;11.60;77.70
14733;DHT22;7457;50.960;6.830;2022-12-29T06:03:43;11.60;77.60
14733;DHT22;7457;50.960;6.830;2022-12-29T06:06:09;11.60;77.10
14733;DHT22;7457;50.960;6.830;2022-12-29T06:08:35;11.60;76.70
14733;DHT22;7457;50.960;6.830;2022-12-29T06:11:00;11.60;76.30
14733;DHT22;7457;50.960;6.830;2022-12-29T06:13:26;11.70;75.70
14733;DHT22;7457;50.960;6.830;2022-12-29T06:15:52;11.70;75.30
14733;DHT22;7457;50.960;6.830;2022-12-29T06:18:18;11.70;74.80
14733;DHT22;7457;50.960;6.830;2022-12-29T06:20:44;11.70;75.10
14733;DHT22;7457;50.960;6.830;2022-12-29T06:23:10;11.70;75.00
14733;DHT22;7457;50.960;6.830;2022-12-29T06:25:37;11.70;74.80
14733;DHT22;7457;50.960;6.830;2022-12-29T06:28:03;11.70;74.80
14733;DHT22;7457;50.960;6.830;2022-12-29T06:30:29;11.70;75.10
14733;DHT22;7457;50.960;6.830;2022-12-29T06:32:54;11.70;75.20
14733;DHT22;7457;50.960;6.830;2022-12-29T06:35:20;11.60;75.40
14733;DHT22;7457;50.960;6.830;2022-12-29T06:37:48;11.60;75.60
14733;DHT22;7457;50.960;6.830;2022-12-29T06:40:13;11.50;75.80
14733;DHT22;7457;50.960;6.830;2022-12-29T06:42:39;11.50;76.10
14733;DHT22;7457;50.960;6.830;2022-12-29T06:45:06;11.40;76.40
14733;DHT22;7457;50.960;6.830;2022-12-29T06:47:33;11.40;76.60
14733;DHT22;7457;50.960;6.830;2022-12-29T06:49:59;11.30;76.80
14733;DHT22;7457;50.960;6.830;2022-12-29T06:52:24;11.30;77.20
14733;DHT22;7457;50.960;6.830;2022-12-29T06:54:50;11.30;77.30
14733;DHT22;7457;50.960;6.830;2022-12-29T06:57:16;11.30;77.30
14733;DHT22;7457;50.960;6.830;2022-12-29T06:59:41;11.30;77.50
14733;DHT22;7457;50.960;6.830;2022-12-29T07:02:10;11.30;77.50
14733;DHT22;7457;50.960;6.830;2022-12-29T07:04:36;11.30;77.40
14733;DHT22;7457;50.960;6.830;2022-12-29T07:07:02;11.40;77.50
14733;DHT22;7457;50.960;6.830;2022-12-29T07:09:27;11.40;77.50
14733;DHT22;7457;50.960;6.830;2022-12-29T07:11:53;11.30;77.40
14733;DHT22;7457;50.960;6.830;2022-12-29T07:14:18;11.30;77.50
14733;DHT22;7457;50.960;6.830;2022-12-29T07:16:44;11.30;77.60
14733;DHT22;7457;50.960;6.830;2022-12-29T07:19:10;11.30;77.50
14733;DHT22;7457;50.960;6.830;2022-12-29T07:21:35;11.30;77.70
14733;DHT22;7457;50.960;6.830;2022-12-29T07:24:01;11.30;77.80
14733;DHT22;7457;50.960;6.830;2022-12-29T07:26:26;11.20;78.00
14733;DHT22;7457;50.960;6.830;2022-12-29T07:28:52;11.20;78.10
14733;DHT22;7457;50.960;6.830;2022-12-29T07:31:20;11.20;78.10
14733;DHT22;7457;50.960;6.830;2022-12-29T07:33:46;11.20;78.30
14733;DHT22;7457;50.960;6.830;2022-12-29T07:36:13;11.20;78.20
14733;DHT22;7457;50.960;6.830;2022-12-29T07:38:39;11.20;78.30
14733;DHT22;7457;50.960;6.830;2022-12-29T07:41:05;11.20;78.40
14733;DHT22;7457;50.960;6.830;2022-12-29T07:43:30;11.20;78.50
14733;DHT22;7457;50.960;6.830;2022-12-29T07:45:56;11.10;78.60
14733;DHT22;7457;50.960;6.830;2022-12-29T07:48:22;11.10;78.80
14733;DHT22;7457;50.960;6.830;2022-12-29T07:50:47;11.10;79.00
14733;DHT22;7457;50.960;6.830;2022-12-29T07:53:13;11.10;79.10
14733;DHT22;7457;50.960;6.830;2022-12-29T07:55:39;11.10;79.20
14733;DHT22;7457;50.960;6.830;2022-12-29T07:58:05;11.00;79.00
14733;DHT22;7457;50.960;6.830;2022-12-29T08:00:31;11.00;79.10
14733;DHT22;7457;50.960;6.830;2022-12-29T08:02:56;11.00;79.00
14733;DHT22;7457;50.960;6.830;2022-12-29T08:05:22;11.00;79.10
14733;DHT22;7457;50.960;6.830;2022-12-29T08:07:47;11.10;79.20
14733;DHT22;7457;50.960;6.830;2022-12-29T08:10:14;11.10;79.20
14733;DHT22;7457;50.960;6.830;2022-12-29T08:12:41;11.10;79.10
14733;DHT22;7457;50.960;6.830;2022-12-29T08:15:08;11.10;79.10
14733;DHT22;7457;50.960;6.830;2022-12-29T08:17:34;11.10;78.30
14733;DHT22;7457;50.960;6.830;2022-12-29T08:20:00;11.10;77.40
14733;DHT22;7457;50.960;6.830;2022-12-29T08:22:25;11.10;77.30
14733;DHT22;7457;50.960;6.830;2022-12-29T08:24:51;11.10;77.20
14733;DHT22;7457;50.960;6.830;2022-12-29T08:27:17;11.00;77.20
14733;DHT22;7457;50.960;6.830;2022-12-29T08:29:43;11.00;77.30
14733;DHT22;7457;50.960;6.830;2022-12-29T08:32:09;10.90;77.40
14733;DHT22;7457;50.960;6.830;2022-12-29T08:34:34;10.90;77.50
14733;DHT22;7457;50.960;6.830;2022-12-29T08:37:00;10.80;77.70
14733;DHT22;7457;50.960;6.830;2022-12-29T08:39:26;10.80;78.00
14733;DHT22;7457;50.960;6.830;2022-12-29T08:41:51;10.80;78.10
14733;DHT22;7457;50.960;6.830;2022-12-29T08:44:17;10.80;78.30
14733;DHT22;7457;50.960;6.830;2022-12-29T08:46:42;10.80;78.70
14733;DHT22;7457;50.960;6.830;2022-12-29T08:49:08;10.90;78.30
14733;DHT22;7457;50.960;6.830;2022-12-29T08:51:34;10.90;77.50
14733;DHT22;7457;50.960;6.830;2022-12-29T08:54:00;11.00;77.10
14733;DHT22;7457;50.960;6.830;2022-12-29T08:56:25;11.00;76.90
14733;DHT22;7457;50.960;6.830;2022-12-29T08:58:52;11.00;76.70
14733;DHT22;7457;50.960;6.830;2022-12-29T09:01:18;10.90;76.80
14733;DHT22;7457;50.960;6.830;2022-12-29T09:03:43;10.90;76.80
14733;DHT22;7457;50.960;6.830;2022-12-29T09:06:09;10.80;76.70
14733;DHT22;7457;50.960;6.830;2022-12-29T09:08:35;10.90;77.10
14733;DHT22;7457;50.960;6.830;2022-12-29T09:11:12;10.90;77.00
14733;DHT22;7457;50.960;6.830;2022-12-29T09:13:38;10.90;77.40
14733;DHT22;7457;50.960;6.830;2022-12-29T09:16:03;10.90;77.30
14733;DHT22;7457;50.960;6.830;2022-12-29T09:18:29;11.00;77.60
14733;DHT22;7457;50.960;6.830;2022-12-29T09:20:59;11.30;78.10
14733;DHT22;7457;50.960;6.830;2022-12-29T09:23:26;11.50;77.60
14733;DHT22;7457;50.960;6.830;2022-12-29T09:25:52;11.70;76.70
14733;DHT22;7457;50.960;6.830;2022-12-29T09:28:18;11.90;76.30
14733;DHT22;7457;50.960;6.830;2022-12-29T09:30:44;12.00;76.20
14733;DHT22;7457;50.960;6.830;2022-12-29T09:33:09;12.10;75.80
14733;DHT22;7457;50.960;6.830;2022-12-29T09:35:35;12.20;75.10
14733;DHT22;7457;50.960;6.830;2022-12-29T09:38:00;12.20;74.10
14733;DHT22;7457;50.960;6.830;2022-12-29T09:40:29;12.30;73.70
14733;DHT22;7457;50.960;6.830;2022-12-29T09:46:04;12.30;72.90
14733;DHT22;7457;50.960;6.830;2022-12-29T09:48:39;12.40;73.60
14733;DHT22;7457;50.960;6.830;2022-12-29T09:51:11;12.70;73.20
14733;DHT22;7457;50.960;6.830;2022-12-29T09:53:41;12.90;71.70
14733;DHT22;7457;50.960;6.830;2022-12-29T09:56:17;13.00;72.10
14733;DHT22;7457;50.960;6.830;2022-12-29T09:59:04;13.30;71.50
14733;DHT22;7457;50.960;6.830;2022-12-29T10:01:43;13.60;70.10
14733;DHT22;7457;50.960;6.830;2022-12-29T10:04:10;13.80;70.10
14733;DHT22;7457;50.960;6.830;2022-12-29T10:06:46;13.80;69.40
14733;DHT22;7457;50.960;6.830;2022-12-29T10:09:23;14.00;69.40
14733;DHT22;7457;50.960;6.830;2022-12-29T10:17:34;14.00;66.80
14733;DHT22;7457;50.960;6.830;2022-12-29T10:20:25;14.10;66.60
14733;DHT22;7457;50.960;6.830;2022-12-29T10:25:42;14.30;65.50
14733;DHT22;7457;50.960;6.830;2022-12-29T10:28:22;14.20;65.10
14733;DHT22;7457;50.960;6.830;2022-12-29T10:30:49;14.10;64.60
14733;DHT22;7457;50.960;6.830;2022-12-29T10:33:35;14.00;65.00
14733;DHT22;7457;50.960;6.830;2022-12-29T10:36:15;13.80;64.80
14733;DHT22;7457;50.960;6.830;2022-12-29T10:38:48;13.70;63.90
14733;DHT22;7457;50.960;6.830;2022-12-29T10:41:28;13.50;63.80
14733;DHT22;7457;50.960;6.830;2022-12-29T10:43:59;13.50;66.60
14733;DHT22;7457;50.960;6.830;2022-12-29T10:46:29;13.50;66.20
14733;DHT22;7457;50.960;6.830;2022-12-29T10:48:56;13.50;66.70
14733;DHT22;7457;50.960;6.830;2022-12-29T10:51:26;13.30;65.20
14733;DHT22;7457;50.960;6.830;2022-12-29T10:56:43;13.20;67.10
14733;DHT22;7457;50.960;6.830;2022-12-29T10:59:20;13.40;64.80
14733;DHT22;7457;50.960;6.830;2022-12-29T11:07:18;13.70;65.00
14733;DHT22;7457;50.960;6.830;2022-12-29T11:09:44;13.90;67.00
14733;DHT22;7457;50.960;6.830;2022-12-29T11:12:28;14.10;66.30
14733;DHT22;7457;50.960;6.830;2022-12-29T11:15:14;14.30;66.70
14733;DHT22;7457;50.960;6.830;2022-12-29T11:20:32;14.60;64.00
14733;DHT22;7457;50.960;6.830;2022-12-29T11:22:59;14.70;64.50
14733;DHT22;7457;50.960;6.830;2022-12-29T11:25:25;14.60;64.70
14733;DHT22;7457;50.960;6.830;2022-12-29T11:30:28;14.40;64.10
14733;DHT22;7457;50.960;6.830;2022-12-29T11:32:55;14.40;64.00
14733;DHT22;7457;50.960;6.830;2022-12-29T11:35:49;14.50;64.50
14733;DHT22;7457;50.960;6.830;2022-12-29T11:38:24;14.30;61.50
14733;DHT22;7457;50.960;6.830;2022-12-29T11:40:51;13.90;62.00
14733;DHT22;7457;50.960;6.830;2022-12-29T11:43:37;13.50;62.60
14733;DHT22;7457;50.960;6.830;2022-12-29T11:46:04;13.10;63.40
14733;DHT22;7457;50.960;6.830;2022-12-29T11:48:39;12.90;64.10
14733;DHT22;7457;50.960;6.830;2022-12-29T11:51:06;12.60;65.00
14733;DHT22;7457;50.960;6.830;2022-12-29T11:53:39;12.50;65.30
14733;DHT22;7457;50.960;6.830;2022-12-29T11:56:16;12.40;65.80
14733;DHT22;7457;50.960;6.830;2022-12-29T11:58:43;12.30;66.40
14733;DHT22;7457;50.960;6.830;2022-12-29T12:03:44;12.30;68.00
14733;DHT22;7457;50.960;6.830;2022-12-29T12:06:14;12.40;67.50
14733;DHT22;7457;50.960;6.830;2022-12-29T12:08:47;12.40;69.50
14733;DHT22;7457;50.960;6.830;2022-12-29T12:11:16;12.50;66.50
14733;DHT22;7457;50.960;6.830;2022-12-29T12:16:37;12.30;66.30
14733;DHT22;7457;50.960;6.830;2022-12-29T12:19:15;12.20;66.80
14733;DHT22;7457;50.960;6.830;2022-12-29T12:21:47;12.10;67.70
14733;DHT22;7457;50.960;6.830;2022-12-29T12:29:52;11.90;68.60
14733;DHT22;7457;50.960;6.830;2022-12-29T12:32:35;11.90;68.20
14733;DHT22;7457;50.960;6.830;2022-12-29T12:35:03;11.80;68.70
14733;DHT22;7457;50.960;6.830;2022-12-29T12:48:38;11.90;70.20
14733;DHT22;7457;50.960;6.830;2022-12-29T12:54:18;12.00;69.60
14733;DHT22;7457;50.960;6.830;2022-12-29T12:57:34;12.00;69.70
14733;DHT22;7457;50.960;6.830;2022-12-29T13:08:43;11.90;69.40
14733;DHT22;7457;50.960;6.830;2022-12-29T13:11:17;11.90;69.50
14733;DHT22;7457;50.960;6.830;2022-12-29T13:16:54;11.80;70.00
14733;DHT22;7457;50.960;6.830;2022-12-29T13:22:12;11.80;69.20
14733;DHT22;7457;50.960;6.830;2022-12-29T13:24:43;11.70;69.00
14733;DHT22;7457;50.960;6.830;2022-12-29T13:30:03;11.50;69.00
14733;DHT22;7457;50.960;6.830;2022-12-29T13:35:25;11.40;70.00
14733;DHT22;7457;50.960;6.830;2022-12-29T13:38:20;11.30;70.60
14733;DHT22;7457;50.960;6.830;2022-12-29T13:40:50;11.20;71.00
14733;DHT22;7457;50.960;6.830;2022-12-29T13:43:17;11.20;71.20
14733;DHT22;7457;50.960;6.830;2022-12-29T13:45:54;11.20;71.40
14733;DHT22;7457;50.960;6.830;2022-12-29T13:48:24;11.10;71.70
14733;DHT22;7457;50.960;6.830;2022-12-29T13:50:55;11.10;71.90
14733;DHT22;7457;50.960;6.830;2022-12-29T13:56:24;11.10;71.20
14733;DHT22;7457;50.960;6.830;2022-12-29T13:59:21;11.10;71.30
14733;DHT22;7457;50.960;6.830;2022-12-29T14:04:26;11.00;71.00
14733;DHT22;7457;50.960;6.830;2022-12-29T14:07:18;11.00;70.90
14733;DHT22;7457;50.960;6.830;2022-12-29T14:09:47;10.90;71.10
14733;DHT22;7457;50.960;6.830;2022-12-29T14:17:37;10.80;71.50
14733;DHT22;7457;50.960;6.830;2022-12-29T14:20:04;10.80;71.40
14733;DHT22;7457;50.960;6.830;2022-12-29T14:22:32;10.80;71.50
14733;DHT22;7457;50.960;6.830;2022-12-29T14:24:57;10.80;71.60
14733;DHT22;7457;50.960;6.830;2022-12-29T14:29:55;10.80;71.80
14733;DHT22;7457;50.960;6.830;2022-12-29T14:34:54;10.70;72.20
14733;DHT22;7457;50.960;6.830;2022-12-29T14:37:31;10.70;73.00
14733;DHT22;7457;50.960;6.830;2022-12-29T14:42:46;10.80;71.80
14733;DHT22;7457;50.960;6.830;2022-12-29T14:47:40;10.70;71.70
14733;DHT22;7457;50.960;6.830;2022-12-29T14:52:46;10.70;71.80
14733;DHT22;7457;50.960;6.830;2022-12-29T14:57:49;10.60;72.80
14733;DHT22;7457;50.960;6.830;2022-12-29T15:00:27;10.60;73.40
14733;DHT22;7457;50.960;6.830;2022-12-29T15:08:22;10.40;73.90
14733;DHT22;7457;50.960;6.830;2022-12-29T15:13:24;10.40;73.50
14733;DHT22;7457;50.960;6.830;2022-12-29T15:15:51;10.30;73.00
14733;DHT22;7457;50.960;6.830;2022-12-29T15:18:29;10.30;72.80
14733;DHT22;7457;50.960;6.830;2022-12-29T15:21:04;10.20;72.80
14733;DHT22;7457;50.960;6.830;2022-12-29T15:23:35;10.20;72.70
14733;DHT22;7457;50.960;6.830;2022-12-29T15:26:05;10.10;72.90
14733;DHT22;7457;50.960;6.830;2022-12-29T15:31:09;10.00;73.40
14733;DHT22;7457;50.960;6.830;2022-12-29T15:33:39;9.90;73.50
14733;DHT22;7457;50.960;6.830;2022-12-29T15:36:10;9.90;73.70
14733;DHT22;7457;50.960;6.830;2022-12-29T15:38:37;9.80;73.90
14733;DHT22;7457;50.960;6.830;2022-12-29T15:41:20;9.80;74.00
14733;DHT22;7457;50.960;6.830;2022-12-29T15:44:17;9.80;74.10
14733;DHT22;7457;50.960;6.830;2022-12-29T15:46:45;9.70;74.30
14733;DHT22;7457;50.960;6.830;2022-12-29T15:49:14;9.70;74.40
14733;DHT22;7457;50.960;6.830;2022-12-29T15:51:40;9.70;74.50
14733;DHT22;7457;50.960;6.830;2022-12-29T15:54:14;9.60;74.50
14733;DHT22;7457;50.960;6.830;2022-12-29T15:56:41;9.60;74.20
14733;DHT22;7457;50.960;6.830;2022-12-29T15:59:23;9.50;74.00
14733;DHT22;7457;50.960;6.830;2022-12-29T16:01:49;9.50;74.00
14733;DHT22;7457;50.960;6.830;2022-12-29T16:04:15;9.40;74.10
14733;DHT22;7457;50.960;6.830;2022-12-29T16:06:55;9.30;74.20
14733;DHT22;7457;50.960;6.830;2022-12-29T16:09:42;9.20;74.40
14733;DHT22;7457;50.960;6.830;2022-12-29T16:12:20;9.20;74.50
14733;DHT22;7457;50.960;6.830;2022-12-29T16:14:51;9.10;74.60
14733;DHT22;7457;50.960;6.830;2022-12-29T16:17:21;9.10;74.70
14733;DHT22;7457;50.960;6.830;2022-12-29T16:19:57;9.00;74.80
14733;DHT22;7457;50.960;6.830;2022-12-29T16:24:59;8.90;75.20
14733;DHT22;7457;50.960;6.830;2022-12-29T16:27:36;8.80;75.40
14733;DHT22;7457;50.960;6.830;2022-12-29T16:30:12;8.70;75.60
14733;DHT22;7457;50.960;6.830;2022-12-29T16:32:46;8.60;75.90
14733;DHT22;7457;50.960;6.830;2022-12-29T16:35:21;8.50;76.20
14733;DHT22;7457;50.960;6.830;2022-12-29T16:37:49;8.50;76.40
14733;DHT22;7457;50.960;6.830;2022-12-29T16:40:31;8.40;76.70
14733;DHT22;7457;50.960;6.830;2022-12-29T16:42:59;8.40;77.00
14733;DHT22;7457;50.960;6.830;2022-12-29T16:51:15;8.30;77.70
14733;DHT22;7457;50.960;6.830;2022-12-29T16:53:48;8.30;77.80
14733;DHT22;7457;50.960;6.830;2022-12-29T16:56:18;8.30;78.00
14733;DHT22;7457;50.960;6.830;2022-12-29T16:58:49;8.20;78.30
14733;DHT22;7457;50.960;6.830;2022-12-29T17:01:16;8.20;78.60
14733;DHT22;7457;50.960;6.830;2022-12-29T17:03:50;8.20;78.50
14733;DHT22;7457;50.960;6.830;2022-12-29T17:06:18;8.20;78.50
14733;DHT22;7457;50.960;6.830;2022-12-29T17:08:45;8.20;78.50
14733;DHT22;7457;50.960;6.830;2022-12-29T17:11:32;8.20;78.70
14733;DHT22;7457;50.960;6.830;2022-12-29T17:16:51;8.20;78.90
14733;DHT22;7457;50.960;6.830;2022-12-29T17:19:20;8.20;79.10
14733;DHT22;7457;50.960;6.830;2022-12-29T17:21:46;8.20;79.10
14733;DHT22;7457;50.960;6.830;2022-12-29T17:24:19;8.10;79.20
14733;DHT22;7457;50.960;6.830;2022-12-29T17:26:49;8.10;79.40
14733;DHT22;7457;50.960;6.830;2022-12-29T17:29:35;8.10;79.40
14733;DHT22;7457;50.960;6.830;2022-12-29T17:32:04;8.10;79.60
14733;DHT22;7457;50.960;6.830;2022-12-29T17:34:31;8.10;79.50
14733;DHT22;7457;50.960;6.830;2022-12-29T17:36:57;8.00;79.50
14733;DHT22;7457;50.960;6.830;2022-12-29T17:39:22;8.00;79.60
14733;DHT22;7457;50.960;6.830;2022-12-29T17:41:48;7.90;79.70
14733;DHT22;7457;50.960;6.830;2022-12-29T17:44:18;7.90;79.70
14733;DHT22;7457;50.960;6.830;2022-12-29T17:46:45;7.90;79.80
14733;DHT22;7457;50.960;6.830;2022-12-29T17:49:16;7.90;79.90
14733;DHT22;7457;50.960;6.830;2022-12-29T17:51:43;7.90;79.90
14733;DHT22;7457;50.960;6.830;2022-12-29T17:54:23;7.90;79.80
14733;DHT22;7457;50.960;6.830;2022-12-29T17:56:50;7.90;79.80
14733;DHT22;7457;50.960;6.830;2022-12-29T17:59:16;7.80;79.70
14733;DHT22;7457;50.960;6.830;2022-12-29T18:01:44;7.80;79.80
14733;DHT22;7457;50.960;6.830;2022-12-29T18:04:18;7.70;79.90
14733;DHT22;7457;50.960;6.830;2022-12-29T18:06:45;7.70;80.20
14733;DHT22;7457;50.960;6.830;2022-12-29T18:09:11;7.70;80.40
14733;DHT22;7457;50.960;6.830;2022-12-29T18:11:42;7.70;80.80
14733;DHT22;7457;50.960;6.830;2022-12-29T18:14:17;7.80;81.10
14733;DHT22;7457;50.960;6.830;2022-12-29T18:16:43;7.80;81.00
14733;DHT22;7457;50.960;6.830;2022-12-29T18:19:08;7.90;81.10
14733;DHT22;7457;50.960;6.830;2022-12-29T18:21:35;7.90;81.10
14733;DHT22;7457;50.960;6.830;2022-12-29T18:24:01;7.90;81.20
14733;DHT22;7457;50.960;6.830;2022-12-29T18:26:28;7.90;81.30
14733;DHT22;7457;50.960;6.830;2022-12-29T18:28:56;7.90;82.20
14733;DHT22;7457;50.960;6.830;2022-12-29T18:31:27;7.80;83.10
14733;DHT22;7457;50.960;6.830;2022-12-29T18:33:58;7.80;83.20
14733;DHT22;7457;50.960;6.830;2022-12-29T18:36:24;7.80;83.30
14733;DHT22;7457;50.960;6.830;2022-12-29T18:38:50;7.80;83.20
14733;DHT22;7457;50.960;6.830;2022-12-29T18:41:27;7.70;83.20
14733;DHT22;7457;50.960;6.830;2022-12-29T18:43:57;7.60;83.70
14733;DHT22;7457;50.960;6.830;2022-12-29T18:46:23;7.60;83.80